Terminal Aerodrome Forecast
Issued by NWS

Home | Current Version | Previous Version | Text Only | Print | Product List | Glossary On
Versions: 1 2 3 4 5 6 7 8 9 10 11 12 13 14 15 16
000
FTUS42 KTBW 251751
TAFPIE
TAF
KPIE 251751Z 2518/2618 23011G18KT P6SM SCT030 SCT250
     FM260000 24010KT P6SM FEW030 SCT250
     FM260600 23008KT P6SM SCT015 SCT250
     FM261400 26014KT P6SM VCSH SCT025 SCT250=

USA.gov is the U.S. government's official web portal to all federal, state and local government web resources and services.